sensor_id;sensor_type;location;lat;lon;timestamp;pressure;altitude;pressure_sealevel;temperature;humidity
73151;BME280;61354;50.758;6.106;2022-10-14T00:00:11;99216.75;;;12.12;100.00
73151;BME280;61354;50.758;6.106;2022-10-14T00:02:37;99219.53;;;12.12;100.00
73151;BME280;61354;50.758;6.106;2022-10-14T00:05:03;99224.66;;;12.10;100.00
73151;BME280;61354;50.758;6.106;2022-10-14T00:07:28;99217.56;;;12.13;100.00
73151;BME280;61354;50.758;6.106;2022-10-14T00:09:53;99223.91;;;12.13;100.00
73151;BME280;61354;50.758;6.106;2022-10-14T00:12:19;99224.38;;;12.15;100.00
73151;BME280;61354;50.758;6.106;2022-10-14T00:14:44;99215.19;;;12.15;100.00
73151;BME280;61354;50.758;6.106;2022-10-14T00:17:09;99211.25;;;12.16;100.00
73151;BME280;61354;50.758;6.106;2022-10-14T00:19:35;99212.06;;;12.16;100.00
73151;BME280;61354;50.758;6.106;2022-10-14T00:22:01;99212.06;;;12.16;100.00
73151;BME280;61354;50.758;6.106;2022-10-14T00:24:26;99216.03;;;12.15;100.00
73151;BME280;61354;50.758;6.106;2022-10-14T00:26:52;99213.59;;;12.14;100.00
73151;BME280;61354;50.758;6.106;2022-10-14T00:29:17;99212.06;;;12.16;100.00
73151;BME280;61354;50.758;6.106;2022-10-14T00:31:43;99219.22;;;12.17;100.00
73151;BME280;61354;50.758;6.106;2022-10-14T00:34:09;99217.63;;;12.16;100.00
73151;BME280;61354;50.758;6.106;2022-10-14T00:36:37;99217.63;;;12.16;100.00
73151;BME280;61354;50.758;6.106;2022-10-14T00:39:03;99214.03;;;12.16;100.00
73151;BME280;61354;50.758;6.106;2022-10-14T00:41:31;99214.47;;;12.18;100.00
73151;BME280;61354;50.758;6.106;2022-10-14T00:44:05;99212.47;;;12.18;100.00
73151;BME280;61354;50.758;6.106;2022-10-14T00:46:34;99203.34;;;12.18;100.00
73151;BME280;61354;50.758;6.106;2022-10-14T00:49:04;99203.34;;;12.18;100.00
73151;BME280;61354;50.758;6.106;2022-10-14T00:51:32;99194.19;;;12.17;100.00
73151;BME280;61354;50.758;6.106;2022-10-14T00:53:58;99200.94;;;12.16;100.00
73151;BME280;61354;50.758;6.106;2022-10-14T00:56:26;99192.13;;;12.14;100.00
73151;BME280;61354;50.758;6.106;2022-10-14T00:58:53;99192.56;;;12.16;100.00
73151;BME280;61354;50.758;6.106;2022-10-14T01:01:19;99183.34;;;12.12;100.00
73151;BME280;61354;50.758;6.106;2022-10-14T01:03:45;99183.78;;;12.14;100.00
73151;BME280;61354;50.758;6.106;2022-10-14T01:14:32;99166.25;;;12.14;100.00
73151;BME280;61354;50.758;6.106;2022-10-14T01:17:05;99166.66;;;12.12;100.00
73151;BME280;61354;50.758;6.106;2022-10-14T01:22:40;99164.22;;;12.11;100.00
73151;BME280;61354;50.758;6.106;2022-10-14T01:25:18;99157.50;;;12.12;100.00
73151;BME280;61354;50.758;6.106;2022-10-14T01:28:02;99150.28;;;12.11;100.00
73151;BME280;61354;50.758;6.106;2022-10-14T01:30:36;99141.91;;;12.07;100.00
73151;BME280;61354;50.758;6.106;2022-10-14T01:33:19;99132.38;;;12.08;100.00
73151;BME280;61354;50.758;6.106;2022-10-14T01:38:44;99133.09;;;12.05;100.00
73151;BME280;61354;50.758;6.106;2022-10-14T01:41:18;99133.09;;;12.05;100.00
73151;BME280;61354;50.758;6.106;2022-10-14T01:43:48;99130.63;;;12.00;100.00
73151;BME280;61354;50.758;6.106;2022-10-14T01:46:16;99125.34;;;11.95;100.00
73151;BME280;61354;50.758;6.106;2022-10-14T01:48:45;99128.13;;;11.95;100.00
73151;BME280;61354;50.758;6.106;2022-10-14T01:51:15;99123.00;;;11.97;100.00
73151;BME280;61354;50.758;6.106;2022-10-14T01:53:48;99119.00;;;11.94;100.00
73151;BME280;61354;50.758;6.106;2022-10-14T01:56:16;99120.13;;;11.93;100.00
73151;BME280;61354;50.758;6.106;2022-10-14T01:58:42;99122.94;;;11.93;100.00
73151;BME280;61354;50.758;6.106;2022-10-14T02:01:08;99116.56;;;11.93;100.00
73151;BME280;61354;50.758;6.106;2022-10-14T02:03:42;99119.34;;;11.93;100.00
73151;BME280;61354;50.758;6.106;2022-10-14T02:06:25;99123.31;;;11.92;100.00
73151;BME280;61354;50.758;6.106;2022-10-14T02:09:09;99121.69;;;11.91;100.00
73151;BME280;61354;50.758;6.106;2022-10-14T02:11:47;99116.56;;;11.93;100.00
73151;BME280;61354;50.758;6.106;2022-10-14T02:14:25;99113.03;;;11.96;100.00
73151;BME280;61354;50.758;6.106;2022-10-14T02:17:06;99119.03;;;11.98;100.00
73151;BME280;61354;50.758;6.106;2022-10-14T02:19:43;99119.03;;;11.98;100.00
73151;BME280;61354;50.758;6.106;2022-10-14T02:22:24;99110.34;;;12.00;100.00
73151;BME280;61354;50.758;6.106;2022-10-14T02:24:54;99114.34;;;12.02;100.00
73151;BME280;61354;50.758;6.106;2022-10-14T02:27:24;99109.97;;;12.01;100.00
73151;BME280;61354;50.758;6.106;2022-10-14T02:29:50;99106.75;;;11.99;100.00
73151;BME280;61354;50.758;6.106;2022-10-14T02:32:19;99096.13;;;12.05;100.00
73151;BME280;61354;50.758;6.106;2022-10-14T02:34:48;99101.31;;;12.06;100.00
73151;BME280;61354;50.758;6.106;2022-10-14T02:37:15;99096.56;;;12.07;100.00
73151;BME280;61354;50.758;6.106;2022-10-14T02:39:51;99099.78;;;12.09;100.00
73151;BME280;61354;50.758;6.106;2022-10-14T02:42:19;99102.16;;;12.10;100.00
73151;BME280;61354;50.758;6.106;2022-10-14T02:45:02;99101.03;;;12.11;100.00
73151;BME280;61354;50.758;6.106;2022-10-14T02:47:28;99095.06;;;12.13;100.00
73151;BME280;61354;50.758;6.106;2022-10-14T02:49:53;99091.91;;;12.14;100.00
73151;BME280;61354;50.758;6.106;2022-10-14T02:52:19;99087.16;;;12.15;100.00
73151;BME280;61354;50.758;6.106;2022-10-14T02:54:44;99093.53;;;12.15;100.00
73151;BME280;61354;50.758;6.106;2022-10-14T02:57:10;99095.50;;;12.15;100.00
73151;BME280;61354;50.758;6.106;2022-10-14T02:59:35;99087.16;;;12.15;100.00
73151;BME280;61354;50.758;6.106;2022-10-14T03:02:01;99082.41;;;12.15;100.00
73151;BME280;61354;50.758;6.106;2022-10-14T03:04:26;99082.41;;;12.15;100.00
73151;BME280;61354;50.758;6.106;2022-10-14T03:06:51;99080.03;;;12.17;100.00
73151;BME280;61354;50.758;6.106;2022-10-14T03:09:18;99073.59;;;12.13;100.00
73151;BME280;61354;50.758;6.106;2022-10-14T03:11:43;99070.09;;;12.16;100.00
73151;BME280;61354;50.758;6.106;2022-10-14T03:14:09;99074.47;;;12.17;100.00
73151;BME280;61354;50.758;6.106;2022-10-14T03:16:34;99079.25;;;12.17;100.00
73151;BME280;61354;50.758;6.106;2022-10-14T03:18:59;99080.03;;;12.17;100.00
73151;BME280;61354;50.758;6.106;2022-10-14T03:21:25;99070.50;;;12.18;100.00
73151;BME280;61354;50.758;6.106;2022-10-14T03:23:51;99059.38;;;12.18;100.00
73151;BME280;61354;50.758;6.106;2022-10-14T03:26:17;99056.25;;;12.20;100.00
73151;BME280;61354;50.758;6.106;2022-10-14T03:28:43;99053.81;;;12.18;100.00
73151;BME280;61354;50.758;6.106;2022-10-14T03:31:08;99052.66;;;12.19;100.00
73151;BME280;61354;50.758;6.106;2022-10-14T03:33:34;99055.06;;;12.21;100.00
73151;BME280;61354;50.758;6.106;2022-10-14T03:35:59;99066.56;;;12.19;100.00
73151;BME280;61354;50.758;6.106;2022-10-14T03:38:25;99057.03;;;12.21;100.00
73151;BME280;61354;50.758;6.106;2022-10-14T03:40:50;99055.06;;;12.21;100.00
73151;BME280;61354;50.758;6.106;2022-10-14T03:43:16;99051.47;;;12.21;100.00
73151;BME280;61354;50.758;6.106;2022-10-14T03:45:43;99057.03;;;12.21;100.00
73151;BME280;61354;50.758;6.106;2022-10-14T03:48:08;99053.88;;;12.22;100.00
73151;BME280;61354;50.758;6.106;2022-10-14T03:50:34;99046.31;;;12.23;100.00
73151;BME280;61354;50.758;6.106;2022-10-14T03:52:59;99037.97;;;12.23;100.00
73151;BME280;61354;50.758;6.106;2022-10-14T03:55:25;99045.19;;;12.24;100.00
73151;BME280;61354;50.758;6.106;2022-10-14T03:57:50;99033.97;;;12.20;100.00
73151;BME280;61354;50.758;6.106;2022-10-14T04:00:16;99032.72;;;12.17;100.00
73151;BME280;61354;50.758;6.106;2022-10-14T04:02:42;99034.78;;;12.21;100.00
73151;BME280;61354;50.758;6.106;2022-10-14T04:05:07;99037.16;;;12.22;100.00
73151;BME280;61354;50.758;6.106;2022-10-14T04:07:33;99032.72;;;12.17;100.00
73151;BME280;61354;50.758;6.106;2022-10-14T04:09:58;99032.41;;;12.23;100.00
73151;BME280;61354;50.758;6.106;2022-10-14T04:12:23;99033.59;;;12.22;100.00
73151;BME280;61354;50.758;6.106;2022-10-14T04:14:49;99033.09;;;12.16;100.00
73151;BME280;61354;50.758;6.106;2022-10-14T04:17:14;99028.69;;;12.15;100.00
73151;BME280;61354;50.758;6.106;2022-10-14T04:19:40;99030.75;;;12.18;100.00
73151;BME280;61354;50.758;6.106;2022-10-14T04:22:05;99026.41;;;12.21;100.00
73151;BME280;61354;50.758;6.106;2022-10-14T04:24:30;99029.22;;;12.21;100.00
73151;BME280;61354;50.758;6.106;2022-10-14T04:26:56;99020.47;;;12.22;100.00
73151;BME280;61354;50.758;6.106;2022-10-14T04:29:21;99024.44;;;12.21;100.00
73151;BME280;61354;50.758;6.106;2022-10-14T04:31:47;99021.28;;;12.23;100.00
73151;BME280;61354;50.758;6.106;2022-10-14T04:34:12;99021.28;;;12.23;100.00
73151;BME280;61354;50.758;6.106;2022-10-14T04:36:38;99022.03;;;12.19;100.00
73151;BME280;61354;50.758;6.106;2022-10-14T04:39:03;99023.63;;;12.21;100.00
73151;BME280;61354;50.758;6.106;2022-10-14T04:41:30;99012.56;;;12.24;100.00
73151;BME280;61354;50.758;6.106;2022-10-14T04:43:55;99020.47;;;12.22;100.00
73151;BME280;61354;50.758;6.106;2022-10-14T04:46:21;99019.59;;;12.18;100.00
73151;BME280;61354;50.758;6.106;2022-10-14T04:48:47;99013.25;;;12.17;100.00
73151;BME280;61354;50.758;6.106;2022-10-14T04:51:12;99008.53;;;12.22;100.00
73151;BME280;61354;50.758;6.106;2022-10-14T04:53:38;99011.31;;;12.22;100.00
73151;BME280;61354;50.758;6.106;2022-10-14T04:56:03;99007.78;;;12.25;100.00
73151;BME280;61354;50.758;6.106;2022-10-14T04:58:29;99005.44;;;12.27;100.00
73151;BME280;61354;50.758;6.106;2022-10-14T05:00:54;99005.44;;;12.27;100.00
73151;BME280;61354;50.758;6.106;2022-10-14T05:03:20;99006.28;;;12.31;100.00
73151;BME280;61354;50.758;6.106;2022-10-14T05:05:45;99000.72;;;12.31;100.00
73151;BME280;61354;50.758;6.106;2022-10-14T05:08:10;98990.38;;;12.31;100.00
73151;BME280;61354;50.758;6.106;2022-10-14T05:10:37;98991.22;;;12.32;100.00
73151;BME280;61354;50.758;6.106;2022-10-14T05:13:03;98990.03;;;12.33;100.00
73151;BME280;61354;50.758;6.106;2022-10-14T05:15:28;98993.63;;;12.33;100.00
73151;BME280;61354;50.758;6.106;2022-10-14T05:17:54;98991.22;;;12.32;100.00
73151;BME280;61354;50.758;6.106;2022-10-14T05:20:20;98985.66;;;12.32;100.00
73151;BME280;61354;50.758;6.106;2022-10-14T05:22:45;98986.44;;;12.32;100.00
73151;BME280;61354;50.758;6.106;2022-10-14T05:25:11;98992.81;;;12.33;100.00
73151;BME280;61354;50.758;6.106;2022-10-14T05:27:36;98996.78;;;12.32;100.00
73151;BME280;61354;50.758;6.106;2022-10-14T05:30:02;98991.22;;;12.32;100.00
73151;BME280;61354;50.758;6.106;2022-10-14T05:32:28;98995.16;;;12.31;100.00
73151;BME280;61354;50.758;6.106;2022-10-14T05:34:53;98989.59;;;12.31;100.00
73151;BME280;61354;50.758;6.106;2022-10-14T05:37:19;98986.38;;;12.29;100.00
73151;BME280;61354;50.758;6.106;2022-10-14T05:39:44;98985.22;;;12.30;100.00
73151;BME280;61354;50.758;6.106;2022-10-14T05:42:10;98982.41;;;12.30;100.00
73151;BME280;61354;50.758;6.106;2022-10-14T05:44:36;98980.38;;;12.27;100.00
73151;BME280;61354;50.758;6.106;2022-10-14T05:47:01;98974.81;;;12.27;100.00
73151;BME280;61354;50.758;6.106;2022-10-14T05:49:26;98968.81;;;12.25;100.00
73151;BME280;61354;50.758;6.106;2022-10-14T05:51:52;98972.78;;;12.24;100.00
73151;BME280;61354;50.758;6.106;2022-10-14T05:54:17;98967.63;;;12.26;100.00
73151;BME280;61354;50.758;6.106;2022-10-14T05:56:43;98964.06;;;12.25;100.00
73151;BME280;61354;50.758;6.106;2022-10-14T05:59:09;98964.06;;;12.25;100.00
73151;BME280;61354;50.758;6.106;2022-10-14T06:01:34;98972.03;;;12.27;100.00
73151;BME280;61354;50.758;6.106;2022-10-14T06:04:01;98966.44;;;12.27;100.00
73151;BME280;61354;50.758;6.106;2022-10-14T06:06:26;98960.88;;;12.27;100.00
73151;BME280;61354;50.758;6.106;2022-10-14T06:08:54;98961.69;;;12.27;100.00
73151;BME280;61354;50.758;6.106;2022-10-14T06:11:19;98959.28;;;12.26;100.00
73151;BME280;61354;50.758;6.106;2022-10-14T06:13:45;98960.88;;;12.27;100.00
73151;BME280;61354;50.758;6.106;2022-10-14T06:16:10;98956.94;;;12.28;100.00
73151;BME280;61354;50.758;6.106;2022-10-14T06:18:36;98956.94;;;12.28;100.00
73151;BME280;61354;50.758;6.106;2022-10-14T06:21:03;98949.00;;;12.30;100.00
73151;BME280;61354;50.758;6.106;2022-10-14T06:23:29;98947.47;;;12.32;100.00
73151;BME280;61354;50.758;6.106;2022-10-14T06:25:54;98939.47;;;12.31;100.00
73151;BME280;61354;50.758;6.106;2022-10-14T06:35:41;98921.91;;;12.27;100.00
73151;BME280;61354;50.758;6.106;2022-10-14T06:38:06;98921.63;;;12.32;100.00
73151;BME280;61354;50.758;6.106;2022-10-14T06:40:32;98911.22;;;12.29;100.00
73151;BME280;61354;50.758;6.106;2022-10-14T06:42:57;98904.78;;;12.25;100.00
73151;BME280;61354;50.758;6.106;2022-10-14T06:45:23;98916.34;;;12.27;100.00
73151;BME280;61354;50.758;6.106;2022-10-14T06:47:48;98915.59;;;12.30;100.00
73151;BME280;61354;50.758;6.106;2022-10-14T06:50:14;98912.41;;;12.28;100.00
73151;BME280;61354;50.758;6.106;2022-10-14T06:52:39;98906.06;;;12.31;100.00
73151;BME280;61354;50.758;6.106;2022-10-14T06:55:05;98905.59;;;12.25;100.00
73151;BME280;61354;50.758;6.106;2022-10-14T06:57:30;98905.66;;;12.29;100.00
73151;BME280;61354;50.758;6.106;2022-10-14T06:59:56;98906.13;;;12.34;100.00
73151;BME280;61354;50.758;6.106;2022-10-14T07:02:21;98909.22;;;12.29;100.00
73151;BME280;61354;50.758;6.106;2022-10-14T07:04:46;98908.97;;;12.38;100.00
73151;BME280;61354;50.758;6.106;2022-10-14T07:07:12;98900.72;;;12.45;100.00
73151;BME280;61354;50.758;6.106;2022-10-14T07:09:37;98891.97;;;12.47;100.00
73151;BME280;61354;50.758;6.106;2022-10-14T07:12:03;98898.78;;;12.49;100.00
73151;BME280;61354;50.758;6.106;2022-10-14T07:14:28;98895.66;;;12.54;100.00
73151;BME280;61354;50.758;6.106;2022-10-14T07:16:53;98899.69;;;12.57;100.00
73151;BME280;61354;50.758;6.106;2022-10-14T07:19:21;98894.59;;;12.62;100.00
73151;BME280;61354;50.758;6.106;2022-10-14T07:36:03;98895.19;;;12.79;100.00
73151;BME280;61354;50.758;6.106;2022-10-14T07:38:30;98906.75;;;12.81;100.00
73151;BME280;61354;50.758;6.106;2022-10-14T07:41:00;98896.44;;;12.85;100.00
73151;BME280;61354;50.758;6.106;2022-10-14T07:43:27;98900.47;;;12.87;100.00
73151;BME280;61354;50.758;6.106;2022-10-14T07:45:52;98896.50;;;12.88;100.00
73151;BME280;61354;50.758;6.106;2022-10-14T07:55:45;98902.22;;;12.99;100.00
73151;BME280;61354;50.758;6.106;2022-10-14T07:58:21;98901.06;;;13.04;100.00
73151;BME280;61354;50.758;6.106;2022-10-14T08:00:48;98909.47;;;13.07;100.00
73151;BME280;61354;50.758;6.106;2022-10-14T08:03:14;98907.06;;;13.06;100.00
73151;BME280;61354;50.758;6.106;2022-10-14T08:05:40;98902.31;;;13.06;100.00
73151;BME280;61354;50.758;6.106;2022-10-14T08:08:06;98904.31;;;13.09;100.00
73151;BME280;61354;50.758;6.106;2022-10-14T08:10:32;98899.94;;;13.08;100.00
73151;BME280;61354;50.758;6.106;2022-10-14T08:12:58;98894.34;;;13.08;100.00
73151;BME280;61354;50.758;6.106;2022-10-14T08:15:24;98895.19;;;13.12;100.00
73151;BME280;61354;50.758;6.106;2022-10-14T08:17:53;98891.66;;;13.15;100.00
73151;BME280;61354;50.758;6.106;2022-10-14T08:20:18;98887.69;;;13.16;100.00
73151;BME280;61354;50.758;6.106;2022-10-14T08:22:44;98888.09;;;13.18;100.00
73151;BME280;61354;50.758;6.106;2022-10-14T08:25:09;98885.28;;;13.18;100.00
73151;BME280;61354;50.758;6.106;2022-10-14T08:27:34;98882.56;;;13.22;100.00
73151;BME280;61354;50.758;6.106;2022-10-14T08:30:00;98878.25;;;13.25;100.00
73151;BME280;61354;50.758;6.106;2022-10-14T08:32:25;98879.06;;;13.29;100.00
73151;BME280;61354;50.758;6.106;2022-10-14T08:34:51;98874.69;;;13.28;100.00
73151;BME280;61354;50.758;6.106;2022-10-14T08:37:16;98876.69;;;13.31;100.00
73151;BME280;61354;50.758;6.106;2022-10-14T08:39:42;98875.53;;;13.32;100.00
73151;BME280;61354;50.758;6.106;2022-10-14T08:44:46;98872.78;;;13.35;100.00
73151;BME280;61354;50.758;6.106;2022-10-14T08:47:16;98881.94;;;13.36;100.00
73151;BME280;61354;50.758;6.106;2022-10-14T08:49:56;98876.38;;;13.39;100.00
73151;BME280;61354;50.758;6.106;2022-10-14T08:52:30;98859.69;;;13.43;100.00
73151;BME280;61354;50.758;6.106;2022-10-14T08:55:00;98862.91;;;13.45;100.00
73151;BME280;61354;50.758;6.106;2022-10-14T08:57:32;98859.75;;;13.50;100.00
73151;BME280;61354;50.758;6.106;2022-10-14T09:00:01;98859.00;;;13.53;100.00
73151;BME280;61354;50.758;6.106;2022-10-14T09:02:45;98858.25;;;13.56;100.00
73151;BME280;61354;50.758;6.106;2022-10-14T09:05:16;98853.50;;;13.60;100.00
73151;BME280;61354;50.758;6.106;2022-10-14T09:07:42;98845.56;;;13.66;100.00
73151;BME280;61354;50.758;6.106;2022-10-14T09:10:25;98847.59;;;13.69;100.00
73151;BME280;61354;50.758;6.106;2022-10-14T09:12:53;98844.81;;;13.73;100.00
73151;BME280;61354;50.758;6.106;2022-10-14T09:18:35;98848.91;;;13.86;100.00
73151;BME280;61354;50.758;6.106;2022-10-14T09:23:48;98851.34;;;13.91;99.33
73151;BME280;61354;50.758;6.106;2022-10-14T09:26:18;98855.34;;;13.97;99.64
73151;BME280;61354;50.758;6.106;2022-10-14T09:28:44;98849.00;;;14.00;99.58
73151;BME280;61354;50.758;6.106;2022-10-14T09:34:51;98847.47;;;14.06;97.90
73151;BME280;61354;50.758;6.106;2022-10-14T09:39:46;98863.84;;;14.11;98.50
73151;BME280;61354;50.758;6.106;2022-10-14T09:42:26;98855.06;;;14.13;97.95
73151;BME280;61354;50.758;6.106;2022-10-14T09:45:05;98860.28;;;14.14;98.91
73151;BME280;61354;50.758;6.106;2022-10-14T09:47:35;98849.13;;;14.18;98.28
73151;BME280;61354;50.758;6.106;2022-10-14T09:50:07;98840.78;;;14.22;98.28
73151;BME280;61354;50.758;6.106;2022-10-14T09:52:33;98855.56;;;14.26;97.98
73151;BME280;61354;50.758;6.106;2022-10-14T09:55:00;98849.19;;;14.29;97.76
73151;BME280;61354;50.758;6.106;2022-10-14T09:57:26;98842.06;;;14.35;97.96
73151;BME280;61354;50.758;6.106;2022-10-14T09:59:58;98842.47;;;14.37;97.57
73151;BME280;61354;50.758;6.106;2022-10-14T10:02:36;98839.72;;;14.44;98.18
73151;BME280;61354;50.758;6.106;2022-10-14T10:05:24;98834.94;;;14.45;97.22
73151;BME280;61354;50.758;6.106;2022-10-14T10:08:13;98830.53;;;14.47;96.37
73151;BME280;61354;50.758;6.106;2022-10-14T10:10:39;98831.00;;;14.49;96.92
73151;BME280;61354;50.758;6.106;2022-10-14T10:13:20;98826.19;;;14.50;96.90
73151;BME280;61354;50.758;6.106;2022-10-14T10:16:00;98826.22;;;14.53;96.84
73151;BME280;61354;50.758;6.106;2022-10-14T10:18:27;98823.81;;;14.55;96.68
73151;BME280;61354;50.758;6.106;2022-10-14T10:21:13;98818.22;;;14.55;95.83
73151;BME280;61354;50.758;6.106;2022-10-14T10:24:01;98824.63;;;14.59;96.46
73151;BME280;61354;50.758;6.106;2022-10-14T10:26:30;98814.69;;;14.62;96.76
73151;BME280;61354;50.758;6.106;2022-10-14T10:28:59;98813.09;;;14.64;95.67
73151;BME280;61354;50.758;6.106;2022-10-14T10:36:43;98805.56;;;14.83;95.70
73151;BME280;61354;50.758;6.106;2022-10-14T10:39:38;98800.78;;;14.87;95.75
73151;BME280;61354;50.758;6.106;2022-10-14T10:42:19;98800.00;;;14.90;94.73
73151;BME280;61354;50.758;6.106;2022-10-14T10:45:03;98800.81;;;14.90;95.10
73151;BME280;61354;50.758;6.106;2022-10-14T11:06:56;98784.88;;;15.16;92.42
73151;BME280;61354;50.758;6.106;2022-10-14T11:12:36;98776.09;;;15.10;92.24
73151;BME280;61354;50.758;6.106;2022-10-14T11:23:55;98776.88;;;15.11;92.27
73151;BME280;61354;50.758;6.106;2022-10-14T11:32:06;98772.06;;;15.04;91.57
73151;BME280;61354;50.758;6.106;2022-10-14T11:34:42;98780.06;;;15.13;92.86
73151;BME280;61354;50.758;6.106;2022-10-14T11:37:45;98777.69;;;15.11;93.48
73151;BME280;61354;50.758;6.106;2022-10-14T11:40:22;98779.66;;;15.04;94.02
73151;BME280;61354;50.758;6.106;2022-10-14T11:45:49;98766.47;;;14.94;96.41
73151;BME280;61354;50.758;6.106;2022-10-14T11:48:45;98772.03;;;14.83;97.05
73151;BME280;61354;50.758;6.106;2022-10-14T11:51:23;98767.22;;;14.80;96.85
73151;BME280;61354;50.758;6.106;2022-10-14T12:02:00;98756.84;;;14.73;99.14
73151;BME280;61354;50.758;6.106;2022-10-14T12:04:34;98757.63;;;14.74;99.60
73151;BME280;61354;50.758;6.106;2022-10-14T12:07:21;98741.25;;;14.76;99.27
73151;BME280;61354;50.758;6.106;2022-10-14T12:09:54;98734.50;;;14.77;98.58
73151;BME280;61354;50.758;6.106;2022-10-14T12:12:21;98735.66;;;14.72;98.71
73151;BME280;61354;50.758;6.106;2022-10-14T12:15:00;98734.50;;;14.77;98.77
73151;BME280;61354;50.758;6.106;2022-10-14T12:17:35;98741.25;;;14.76;98.55
73151;BME280;61354;50.758;6.106;2022-10-14T12:20:33;98734.50;;;14.77;98.75
73151;BME280;61354;50.758;6.106;2022-10-14T12:23:01;98716.09;;;14.76;98.65
73151;BME280;61354;50.758;6.106;2022-10-14T12:25:33;98723.69;;;14.75;98.40
73151;BME280;61354;50.758;6.106;2022-10-14T12:28:02;98717.72;;;14.77;98.76
73151;BME280;61354;50.758;6.106;2022-10-14T12:33:11;98716.91;;;14.83;98.02
73151;BME280;61354;50.758;6.106;2022-10-14T12:35:55;98712.13;;;14.84;98.16
73151;BME280;61354;50.758;6.106;2022-10-14T12:38:25;98704.56;;;14.95;98.45
73151;BME280;61354;50.758;6.106;2022-10-14T12:40:51;98706.56;;;14.98;97.95
73151;BME280;61354;50.758;6.106;2022-10-14T12:43:20;98698.56;;;15.04;98.37
73151;BME280;61354;50.758;6.106;2022-10-14T12:46:01;98700.97;;;15.09;98.17
73151;BME280;61354;50.758;6.106;2022-10-14T12:48:33;98692.16;;;14.96;98.03
73151;BME280;61354;50.758;6.106;2022-10-14T12:51:12;98698.94;;;14.91;98.78
73151;BME280;61354;50.758;6.106;2022-10-14T12:53:47;98688.19;;;15.11;99.24
73151;BME280;61354;50.758;6.106;2022-10-14T12:56:28;98691.38;;;15.21;98.35
73151;BME280;61354;50.758;6.106;2022-10-14T12:58:56;98696.97;;;15.28;97.94
73151;BME280;61354;50.758;6.106;2022-10-14T13:01:25;98699.78;;;15.31;98.55
73151;BME280;61354;50.758;6.106;2022-10-14T13:03:54;98696.16;;;15.16;96.83
73151;BME280;61354;50.758;6.106;2022-10-14T13:11:36;98675.81;;;15.02;98.08
73151;BME280;61354;50.758;6.106;2022-10-14T13:14:19;98691.38;;;14.99;98.72
73151;BME280;61354;50.758;6.106;2022-10-14T13:22:02;98684.16;;;14.84;100.00
73151;BME280;61354;50.758;6.106;2022-10-14T13:24:37;98675.78;;;14.84;100.00
73151;BME280;61354;50.758;6.106;2022-10-14T13:27:21;98669.81;;;14.89;100.00
73151;BME280;61354;50.758;6.106;2022-10-14T13:32:53;98667.41;;;15.12;100.00
73151;BME280;61354;50.758;6.106;2022-10-14T13:35:31;98665.81;;;15.11;99.99
73151;BME280;61354;50.758;6.106;2022-10-14T13:38:03;98658.63;;;15.10;99.63
73151;BME280;61354;50.758;6.106;2022-10-14T13:40:35;98657.44;;;15.19;99.93
73151;BME280;61354;50.758;6.106;2022-10-14T13:43:28;98663.41;;;15.13;99.17
73151;BME280;61354;50.758;6.106;2022-10-14T13:46:02;98659.81;;;15.16;99.21
73151;BME280;61354;50.758;6.106;2022-10-14T13:48:33;98666.22;;;15.10;98.21
73151;BME280;61354;50.758;6.106;2022-10-14T13:53:57;98646.63;;;15.21;98.02
73151;BME280;61354;50.758;6.106;2022-10-14T13:56:30;98641.81;;;15.28;97.78
73151;BME280;61354;50.758;6.106;2022-10-14T13:58:56;98646.63;;;15.31;98.14
73151;BME280;61354;50.758;6.106;2022-10-14T14:01:28;98657.41;;;15.29;96.93
73151;BME280;61354;50.758;6.106;2022-10-14T14:03:56;98653.81;;;15.39;97.29
73151;BME280;61354;50.758;6.106;2022-10-14T14:06:24;98654.59;;;15.40;95.60
73151;BME280;61354;50.758;6.106;2022-10-14T14:08:55;98656.19;;;15.41;95.40
73151;BME280;61354;50.758;6.106;2022-10-14T14:11:28;98663.38;;;15.53;95.56
73151;BME280;61354;50.758;6.106;2022-10-14T14:14:07;98654.97;;;15.63;95.29
73151;BME280;61354;50.758;6.106;2022-10-14T14:16:41;98648.19;;;15.68;94.13
73151;BME280;61354;50.758;6.106;2022-10-14T14:19:18;98642.59;;;15.68;93.94
73151;BME280;61354;50.758;6.106;2022-10-14T14:21:43;98636.94;;;15.75;94.38
73151;BME280;61354;50.758;6.106;2022-10-14T14:24:19;98637.78;;;15.69;93.50
73151;BME280;61354;50.758;6.106;2022-10-14T14:26:46;98633.38;;;15.60;93.10
73151;BME280;61354;50.758;6.106;2022-10-14T14:29:19;98634.59;;;15.59;93.43
73151;BME280;61354;50.758;6.106;2022-10-14T14:31:46;98641.78;;;15.60;93.53
73151;BME280;61354;50.758;6.106;2022-10-14T14:34:17;98629.00;;;15.52;92.90
73151;BME280;61354;50.758;6.106;2022-10-14T14:36:44;98632.19;;;15.54;93.48
73151;BME280;61354;50.758;6.106;2022-10-14T14:39:20;98635.38;;;15.56;93.22
73151;BME280;61354;50.758;6.106;2022-10-14T14:41:54;98622.59;;;15.55;93.16
73151;BME280;61354;50.758;6.106;2022-10-14T14:44:26;98613.00;;;15.53;92.40
73151;BME280;61354;50.758;6.106;2022-10-14T14:46:58;98604.59;;;15.53;92.85
73151;BME280;61354;50.758;6.106;2022-10-14T14:49:29;98603.81;;;15.45;92.21
73151;BME280;61354;50.758;6.106;2022-10-14T14:51:56;98597.06;;;15.39;91.65
73151;BME280;61354;50.758;6.106;2022-10-14T14:54:23;98597.06;;;15.39;91.52
73151;BME280;61354;50.758;6.106;2022-10-14T14:56:53;98597.84;;;15.39;92.29
73151;BME280;61354;50.758;6.106;2022-10-14T15:01:45;98611.47;;;15.27;91.38
73151;BME280;61354;50.758;6.106;2022-10-14T15:04:22;98600.66;;;15.22;90.60
73151;BME280;61354;50.758;6.106;2022-10-14T15:09:21;98607.09;;;15.22;92.07
73151;BME280;61354;50.758;6.106;2022-10-14T15:11:52;98613.06;;;15.17;91.75
73151;BME280;61354;50.758;6.106;2022-10-14T15:14:31;98614.69;;;15.14;91.76
73151;BME280;61354;50.758;6.106;2022-10-14T15:16:57;98611.06;;;15.17;91.96
73151;BME280;61354;50.758;6.106;2022-10-14T15:19:26;98605.50;;;15.10;90.85